sensor_id;sensor_type;location;lat;lon;timestamp;pressure;altitude;pressure_sealevel;temperature;humidity
33163;BME280;29282;45.656;11.302;2023-06-14T00:00:47;97902.34;;;22.36;61.74
33163;BME280;29282;45.656;11.302;2023-06-14T00:03:17;97896.81;;;22.36;61.51
33163;BME280;29282;45.656;11.302;2023-06-14T00:05:43;97905.09;;;22.36;61.75
33163;BME280;29282;45.656;11.302;2023-06-14T00:08:10;97896.03;;;22.35;61.81
33163;BME280;29282;45.656;11.302;2023-06-14T00:10:36;97892.44;;;22.35;61.72
33163;BME280;29282;45.656;11.302;2023-06-14T00:13:03;97894.06;;;22.36;61.55
33163;BME280;29282;45.656;11.302;2023-06-14T00:15:31;97890.50;;;22.35;61.56
33163;BME280;29282;45.656;11.302;2023-06-14T00:18:03;97894.06;;;22.36;61.89
33163;BME280;29282;45.656;11.302;2023-06-14T00:20:33;97894.06;;;22.36;61.60
33163;BME280;29282;45.656;11.302;2023-06-14T00:22:59;97893.28;;;22.35;61.83
33163;BME280;29282;45.656;11.302;2023-06-14T00:25:28;97893.28;;;22.35;61.91
33163;BME280;29282;45.656;11.302;2023-06-14T00:27:57;97899.59;;;22.36;61.66
33163;BME280;29282;45.656;11.302;2023-06-14T00:30:24;97896.03;;;22.35;61.56
33163;BME280;29282;45.656;11.302;2023-06-14T00:32:51;97892.44;;;22.35;61.62
33163;BME280;29282;45.656;11.302;2023-06-14T00:35:17;97884.16;;;22.35;61.56
33163;BME280;29282;45.656;11.302;2023-06-14T00:37:42;97881.41;;;22.35;61.82
33163;BME280;29282;45.656;11.302;2023-06-14T00:40:08;97864.06;;;22.34;62.11
33163;BME280;29282;45.656;11.302;2023-06-14T00:42:34;97869.56;;;22.34;61.71
33163;BME280;29282;45.656;11.302;2023-06-14T00:45:00;97875.09;;;22.34;61.78
33163;BME280;29282;45.656;11.302;2023-06-14T00:47:26;97861.28;;;22.34;61.87
33163;BME280;29282;45.656;11.302;2023-06-14T00:49:56;97877.84;;;22.34;61.71
33163;BME280;29282;45.656;11.302;2023-06-14T00:52:28;97869.56;;;22.34;62.12
33163;BME280;29282;45.656;11.302;2023-06-14T00:54:57;97866.03;;;22.34;61.82
33163;BME280;29282;45.656;11.302;2023-06-14T00:57:24;97874.31;;;22.34;62.10
33163;BME280;29282;45.656;11.302;2023-06-14T00:59:50;97877.84;;;22.34;61.50
33163;BME280;29282;45.656;11.302;2023-06-14T01:02:17;97879.47;;;22.35;61.61
33163;BME280;29282;45.656;11.302;2023-06-14T01:04:47;97875.09;;;22.34;61.92
33163;BME280;29282;45.656;11.302;2023-06-14T01:10:24;97868.78;;;22.34;61.75
33163;BME280;29282;45.656;11.302;2023-06-14T01:15:58;97879.03;;;22.33;61.99
33163;BME280;29282;45.656;11.302;2023-06-14T01:18:24;97876.28;;;22.33;62.08
33163;BME280;29282;45.656;11.302;2023-06-14T01:20:55;97870.75;;;22.33;61.78
33163;BME280;29282;45.656;11.302;2023-06-14T01:23:26;97862.47;;;22.33;61.96
33163;BME280;29282;45.656;11.302;2023-06-14T01:25:57;97873.50;;;22.33;62.08
33163;BME280;29282;45.656;11.302;2023-06-14T01:28:24;97870.75;;;22.33;61.83
33163;BME280;29282;45.656;11.302;2023-06-14T01:30:58;97868.00;;;22.33;61.64
33163;BME280;29282;45.656;11.302;2023-06-14T01:33:29;97864.44;;;22.33;62.10
33163;BME280;29282;45.656;11.302;2023-06-14T01:35:56;97866.03;;;22.34;62.01
33163;BME280;29282;45.656;11.302;2023-06-14T01:38:27;97867.19;;;22.33;61.90
33163;BME280;29282;45.656;11.302;2023-06-14T01:41:01;97868.00;;;22.33;61.75
33163;BME280;29282;45.656;11.302;2023-06-14T01:43:31;97856.94;;;22.33;62.06
33163;BME280;29282;45.656;11.302;2023-06-14T01:46:05;97854.97;;;22.34;61.73
33163;BME280;29282;45.656;11.302;2023-06-14T01:48:31;97850.66;;;22.33;61.63
33163;BME280;29282;45.656;11.302;2023-06-14T01:51:00;97847.09;;;22.32;61.91
33163;BME280;29282;45.656;11.302;2023-06-14T01:53:26;97853.41;;;22.33;61.82
33163;BME280;29282;45.656;11.302;2023-06-14T01:55:52;97853.41;;;22.33;61.99
33163;BME280;29282;45.656;11.302;2023-06-14T01:58:19;97849.84;;;22.32;61.96
33163;BME280;29282;45.656;11.302;2023-06-14T02:00:46;97854.19;;;22.33;61.62
33163;BME280;29282;45.656;11.302;2023-06-14T02:03:13;97851.44;;;22.33;61.94
33163;BME280;29282;45.656;11.302;2023-06-14T02:05:39;97856.16;;;22.33;62.58
33163;BME280;29282;45.656;11.302;2023-06-14T02:08:06;97856.16;;;22.33;61.67
33163;BME280;29282;45.656;11.302;2023-06-14T02:10:32;97855.38;;;22.32;61.90
33163;BME280;29282;45.656;11.302;2023-06-14T02:12:58;97852.59;;;22.32;62.18
33163;BME280;29282;45.656;11.302;2023-06-14T02:15:24;97852.59;;;22.32;61.78
33163;BME280;29282;45.656;11.302;2023-06-14T02:17:53;97849.84;;;22.32;62.00
33163;BME280;29282;45.656;11.302;2023-06-14T02:20:22;97845.47;;;22.31;61.75
33163;BME280;29282;45.656;11.302;2023-06-14T02:22:48;97843.50;;;22.32;61.86
33163;BME280;29282;45.656;11.302;2023-06-14T02:25:13;97844.31;;;22.32;61.81
33163;BME280;29282;45.656;11.302;2023-06-14T02:27:39;97846.28;;;22.32;61.48
33163;BME280;29282;45.656;11.302;2023-06-14T02:30:06;97838.81;;;22.32;61.60
33163;BME280;29282;45.656;11.302;2023-06-14T02:32:32;97837.19;;;22.31;61.63
33163;BME280;29282;45.656;11.302;2023-06-14T02:35:02;97838.81;;;22.32;61.84
33163;BME280;29282;45.656;11.302;2023-06-14T02:37:28;97836.41;;;22.31;61.93
33163;BME280;29282;45.656;11.302;2023-06-14T02:39:54;97842.72;;;22.31;61.69
33163;BME280;29282;45.656;11.302;2023-06-14T02:42:19;97835.22;;;22.32;61.69
33163;BME280;29282;45.656;11.302;2023-06-14T02:44:48;97842.72;;;22.31;61.92
33163;BME280;29282;45.656;11.302;2023-06-14T02:47:17;97837.19;;;22.31;61.87
33163;BME280;29282;45.656;11.302;2023-06-14T02:49:44;97835.63;;;22.30;61.79
33163;BME280;29282;45.656;11.302;2023-06-14T02:52:15;97844.69;;;22.31;61.68
33163;BME280;29282;45.656;11.302;2023-06-14T02:54:41;97839.16;;;22.31;61.39
33163;BME280;29282;45.656;11.302;2023-06-14T02:57:08;97844.69;;;22.31;61.92
33163;BME280;29282;45.656;11.302;2023-06-14T02:59:37;97843.50;;;22.32;61.74
33163;BME280;29282;45.656;11.302;2023-06-14T03:02:02;97844.69;;;22.31;61.74
33163;BME280;29282;45.656;11.302;2023-06-14T03:04:28;97848.25;;;22.31;61.82
33163;BME280;29282;45.656;11.302;2023-06-14T03:06:55;97840.34;;;22.30;61.71
33163;BME280;29282;45.656;11.302;2023-06-14T03:09:23;97841.13;;;22.30;62.00
33163;BME280;29282;45.656;11.302;2023-06-14T03:11:49;97841.94;;;22.31;61.54
33163;BME280;29282;45.656;11.302;2023-06-14T03:14:14;97844.69;;;22.31;61.87
33163;BME280;29282;45.656;11.302;2023-06-14T03:16:42;97843.09;;;22.30;61.83
33163;BME280;29282;45.656;11.302;2023-06-14T03:19:08;97839.16;;;22.31;61.50
33163;BME280;29282;45.656;11.302;2023-06-14T03:21:34;97827.34;;;22.30;62.09
33163;BME280;29282;45.656;11.302;2023-06-14T03:24:00;97822.59;;;22.31;61.83
33163;BME280;29282;45.656;11.302;2023-06-14T03:26:26;97830.09;;;22.30;61.79
33163;BME280;29282;45.656;11.302;2023-06-14T03:28:51;97826.53;;;22.30;61.47
33163;BME280;29282;45.656;11.302;2023-06-14T03:31:24;97828.13;;;22.31;61.67
33163;BME280;29282;45.656;11.302;2023-06-14T03:33:49;97827.78;;;22.32;61.44
33163;BME280;29282;45.656;11.302;2023-06-14T03:36:15;97825.31;;;22.27;61.24
33163;BME280;29282;45.656;11.302;2023-06-14T03:38:41;97831.56;;;22.24;61.24
33163;BME280;29282;45.656;11.302;2023-06-14T03:41:07;97825.66;;;22.22;61.00
33163;BME280;29282;45.656;11.302;2023-06-14T03:43:35;97827.13;;;22.16;60.64
33163;BME280;29282;45.656;11.302;2023-06-14T03:46:01;97829.81;;;22.12;59.96
33163;BME280;29282;45.656;11.302;2023-06-14T03:48:27;97834.91;;;21.87;59.89
33163;BME280;29282;45.656;11.302;2023-06-14T03:50:54;97837.22;;;21.85;59.20
33163;BME280;29282;45.656;11.302;2023-06-14T03:53:23;97843.63;;;21.89;58.71
33163;BME280;29282;45.656;11.302;2023-06-14T03:55:50;97836.88;;;21.87;59.86
33163;BME280;29282;45.656;11.302;2023-06-14T03:58:18;97837.38;;;21.92;59.68
33163;BME280;29282;45.656;11.302;2023-06-14T04:00:46;97837.03;;;21.97;60.00
33163;BME280;29282;45.656;11.302;2023-06-14T04:03:12;97840.66;;;22.01;59.77
33163;BME280;29282;45.656;11.302;2023-06-14T04:05:41;97845.06;;;22.06;60.02
33163;BME280;29282;45.656;11.302;2023-06-14T04:08:14;97841.94;;;22.08;60.09
33163;BME280;29282;45.656;11.302;2023-06-14T04:10:40;97851.06;;;22.12;59.82
33163;BME280;29282;45.656;11.302;2023-06-14T04:13:06;97846.34;;;22.12;60.14
33163;BME280;29282;45.656;11.302;2023-06-14T04:15:32;97850.69;;;22.13;60.01
33163;BME280;29282;45.656;11.302;2023-06-14T04:17:58;97855.84;;;22.15;60.14
33163;BME280;29282;45.656;11.302;2023-06-14T04:20:24;97853.94;;;22.15;59.88
33163;BME280;29282;45.656;11.302;2023-06-14T04:22:50;97864.59;;;22.17;59.92
33163;BME280;29282;45.656;11.302;2023-06-14T04:25:16;97861.03;;;22.16;60.06
33163;BME280;29282;45.656;11.302;2023-06-14T04:27:42;97863.78;;;22.16;60.23
33163;BME280;29282;45.656;11.302;2023-06-14T04:30:09;97859.06;;;22.17;60.35
33163;BME280;29282;45.656;11.302;2023-06-14T04:32:35;97861.03;;;22.16;60.35
33163;BME280;29282;45.656;11.302;2023-06-14T04:35:04;97860.66;;;22.18;60.53
33163;BME280;29282;45.656;11.302;2023-06-14T04:37:30;97865.03;;;22.19;60.34
33163;BME280;29282;45.656;11.302;2023-06-14T04:39:56;97864.19;;;22.18;60.25
33163;BME280;29282;45.656;11.302;2023-06-14T04:42:22;97867.34;;;22.17;60.10
33163;BME280;29282;45.656;11.302;2023-06-14T04:44:50;97867.78;;;22.19;60.28
33163;BME280;29282;45.656;11.302;2023-06-14T04:47:17;97861.44;;;22.18;60.31
33163;BME280;29282;45.656;11.302;2023-06-14T04:49:42;97872.13;;;22.20;60.14
33163;BME280;29282;45.656;11.302;2023-06-14T04:52:08;97876.06;;;22.19;59.98
33163;BME280;29282;45.656;11.302;2023-06-14T04:54:38;97877.63;;;22.20;60.11
33163;BME280;29282;45.656;11.302;2023-06-14T04:57:06;97876.47;;;22.21;60.01
33163;BME280;29282;45.656;11.302;2023-06-14T04:59:32;97873.34;;;22.22;60.01
33163;BME280;29282;45.656;11.302;2023-06-14T05:02:01;97875.31;;;22.22;60.13
33163;BME280;29282;45.656;11.302;2023-06-14T05:04:27;97869.81;;;22.22;59.87
33163;BME280;29282;45.656;11.302;2023-06-14T05:06:53;97871.38;;;22.23;59.81
33163;BME280;29282;45.656;11.302;2023-06-14T05:09:19;97871.38;;;22.23;60.16
33163;BME280;29282;45.656;11.302;2023-06-14T05:11:45;97876.09;;;22.22;60.08
33163;BME280;29282;45.656;11.302;2023-06-14T05:14:12;97874.16;;;22.23;60.24
33163;BME280;29282;45.656;11.302;2023-06-14T05:16:38;97868.63;;;22.23;60.10
33163;BME280;29282;45.656;11.302;2023-06-14T05:19:04;97876.91;;;22.23;60.42
33163;BME280;29282;45.656;11.302;2023-06-14T05:21:30;97876.91;;;22.23;59.98
33163;BME280;29282;45.656;11.302;2023-06-14T05:23:57;97875.72;;;22.24;60.28
33163;BME280;29282;45.656;11.302;2023-06-14T05:26:22;97877.31;;;22.25;60.29
33163;BME280;29282;45.656;11.302;2023-06-14T05:28:57;97880.06;;;22.25;59.90
33163;BME280;29282;45.656;11.302;2023-06-14T05:31:25;97878.94;;;22.26;59.89
33163;BME280;29282;45.656;11.302;2023-06-14T05:33:51;97881.31;;;22.27;59.87
33163;BME280;29282;45.656;11.302;2023-06-14T05:36:17;97880.50;;;22.27;60.11
33163;BME280;29282;45.656;11.302;2023-06-14T05:38:43;97882.47;;;22.26;60.03
33163;BME280;29282;45.656;11.302;2023-06-14T05:41:12;97884.44;;;22.26;60.15
33163;BME280;29282;45.656;11.302;2023-06-14T05:43:38;97889.97;;;22.26;60.28
33163;BME280;29282;45.656;11.302;2023-06-14T05:46:03;97889.97;;;22.26;59.96
33163;BME280;29282;45.656;11.302;2023-06-14T05:48:30;97891.53;;;22.27;60.43
33163;BME280;29282;45.656;11.302;2023-06-14T05:50:56;97893.13;;;22.28;60.35
33163;BME280;29282;45.656;11.302;2023-06-14T05:53:21;97897.84;;;22.27;60.00
33163;BME280;29282;45.656;11.302;2023-06-14T05:55:46;97913.63;;;22.27;60.06
33163;BME280;29282;45.656;11.302;2023-06-14T05:58:12;97906.53;;;22.26;60.35
33163;BME280;29282;45.656;11.302;2023-06-14T06:00:39;97912.03;;;22.26;60.16
33163;BME280;29282;45.656;11.302;2023-06-14T06:03:04;97913.63;;;22.27;60.14
33163;BME280;29282;45.656;11.302;2023-06-14T06:05:32;97914.78;;;22.26;59.99
33163;BME280;29282;45.656;11.302;2023-06-14T06:07:58;97913.63;;;22.27;60.57
33163;BME280;29282;45.656;11.302;2023-06-14T06:10:23;97920.31;;;22.26;60.56
33163;BME280;29282;45.656;11.302;2023-06-14T06:12:49;97920.31;;;22.26;60.50
33163;BME280;29282;45.656;11.302;2023-06-14T06:15:17;97923.88;;;22.26;60.54
33163;BME280;29282;45.656;11.302;2023-06-14T06:17:44;97920.31;;;22.26;60.75
33163;BME280;29282;45.656;11.302;2023-06-14T06:20:10;97921.13;;;22.26;60.32
33163;BME280;29282;45.656;11.302;2023-06-14T06:22:37;97923.88;;;22.26;60.48
33163;BME280;29282;45.656;11.302;2023-06-14T06:25:02;97924.66;;;22.27;60.54
33163;BME280;29282;45.656;11.302;2023-06-14T06:27:28;97921.91;;;22.27;60.58
33163;BME280;29282;45.656;11.302;2023-06-14T06:29:53;97924.66;;;22.27;60.60
33163;BME280;29282;45.656;11.302;2023-06-14T06:32:19;97927.41;;;22.27;60.75
33163;BME280;29282;45.656;11.302;2023-06-14T06:34:44;97929.00;;;22.28;60.50
33163;BME280;29282;45.656;11.302;2023-06-14T06:37:10;97927.88;;;22.29;60.97
33163;BME280;29282;45.656;11.302;2023-06-14T06:39:36;97935.34;;;22.28;60.51
33163;BME280;29282;45.656;11.302;2023-06-14T06:42:02;97935.34;;;22.28;60.79
33163;BME280;29282;45.656;11.302;2023-06-14T06:44:27;97939.69;;;22.30;60.78
33163;BME280;29282;45.656;11.302;2023-06-14T06:46:53;97934.53;;;22.28;60.87
33163;BME280;29282;45.656;11.302;2023-06-14T06:49:18;97937.28;;;22.28;60.65
33163;BME280;29282;45.656;11.302;2023-06-14T06:51:59;97944.41;;;22.29;60.60
33163;BME280;29282;45.656;11.302;2023-06-14T06:54:25;97936.13;;;22.29;60.88
33163;BME280;29282;45.656;11.302;2023-06-14T06:56:50;97936.13;;;22.29;61.00
33163;BME280;29282;45.656;11.302;2023-06-14T06:59:15;97932.59;;;22.28;61.17
33163;BME280;29282;45.656;11.302;2023-06-14T07:01:42;97939.69;;;22.30;60.51
33163;BME280;29282;45.656;11.302;2023-06-14T07:04:07;97937.72;;;22.30;60.93
33163;BME280;29282;45.656;11.302;2023-06-14T07:06:33;97938.53;;;22.31;60.98
33163;BME280;29282;45.656;11.302;2023-06-14T07:08:58;97939.69;;;22.30;60.73
33163;BME280;29282;45.656;11.302;2023-06-14T07:11:27;97948.75;;;22.30;61.01
33163;BME280;29282;45.656;11.302;2023-06-14T07:13:52;97942.47;;;22.30;61.14
33163;BME280;29282;45.656;11.302;2023-06-14T07:16:18;97941.66;;;22.29;60.93
33163;BME280;29282;45.656;11.302;2023-06-14T07:18:43;97947.19;;;22.29;61.09
33163;BME280;29282;45.656;11.302;2023-06-14T07:21:09;97952.69;;;22.29;60.76
33163;BME280;29282;45.656;11.302;2023-06-14T07:23:34;97945.56;;;22.28;61.25
33163;BME280;29282;45.656;11.302;2023-06-14T07:26:00;97953.84;;;22.28;60.95
33163;BME280;29282;45.656;11.302;2023-06-14T07:28:26;97953.84;;;22.28;60.94
33163;BME280;29282;45.656;11.302;2023-06-14T07:30:51;97948.31;;;22.28;61.12
33163;BME280;29282;45.656;11.302;2023-06-14T07:33:19;97951.91;;;22.28;60.74
33163;BME280;29282;45.656;11.302;2023-06-14T07:35:45;97955.81;;;22.27;61.14
33163;BME280;29282;45.656;11.302;2023-06-14T07:38:14;97959.38;;;22.28;61.27
33163;BME280;29282;45.656;11.302;2023-06-14T07:40:40;97963.75;;;22.29;61.12
33163;BME280;29282;45.656;11.302;2023-06-14T07:43:05;97961.34;;;22.27;61.01
33163;BME280;29282;45.656;11.302;2023-06-14T07:45:31;97970.41;;;22.28;61.06
33163;BME280;29282;45.656;11.302;2023-06-14T07:47:56;97972.38;;;22.27;61.28
33163;BME280;29282;45.656;11.302;2023-06-14T07:50:22;97964.88;;;22.28;61.27
33163;BME280;29282;45.656;11.302;2023-06-14T07:52:47;97974.34;;;22.27;61.06
33163;BME280;29282;45.656;11.302;2023-06-14T07:55:14;97971.56;;;22.27;61.08
33163;BME280;29282;45.656;11.302;2023-06-14T07:57:40;97970.41;;;22.28;61.04
33163;BME280;29282;45.656;11.302;2023-06-14T08:00:06;97972.38;;;22.27;61.21
33163;BME280;29282;45.656;11.302;2023-06-14T08:02:32;97973.16;;;22.28;60.90
33163;BME280;29282;45.656;11.302;2023-06-14T08:04:57;97968.81;;;22.27;60.99
33163;BME280;29282;45.656;11.302;2023-06-14T08:07:23;97966.84;;;22.27;61.22
33163;BME280;29282;45.656;11.302;2023-06-14T08:09:49;97963.31;;;22.27;61.27
33163;BME280;29282;45.656;11.302;2023-06-14T08:12:15;97968.81;;;22.27;60.87
33163;BME280;29282;45.656;11.302;2023-06-14T08:14:42;97972.38;;;22.27;61.22
33163;BME280;29282;45.656;11.302;2023-06-14T08:17:08;97961.34;;;22.27;61.00
33163;BME280;29282;45.656;11.302;2023-06-14T08:19:33;97969.25;;;22.29;60.96
33163;BME280;29282;45.656;11.302;2023-06-14T08:21:59;97964.88;;;22.28;61.29
33163;BME280;29282;45.656;11.302;2023-06-14T08:24:25;97956.59;;;22.28;60.96
33163;BME280;29282;45.656;11.302;2023-06-14T08:26:52;97964.88;;;22.28;61.00
33163;BME280;29282;45.656;11.302;2023-06-14T08:29:18;97973.59;;;22.30;60.96
33163;BME280;29282;45.656;11.302;2023-06-14T08:31:43;97959.38;;;22.28;60.90
33163;BME280;29282;45.656;11.302;2023-06-14T08:34:09;97974.00;;;22.28;60.95
33163;BME280;29282;45.656;11.302;2023-06-14T08:36:35;97975.91;;;22.28;61.17
33163;BME280;29282;45.656;11.302;2023-06-14T08:39:01;97981.09;;;22.30;60.91
33163;BME280;29282;45.656;11.302;2023-06-14T08:41:28;97980.31;;;22.29;61.07
33163;BME280;29282;45.656;11.302;2023-06-14T08:43:55;97979.13;;;22.30;60.87
33163;BME280;29282;45.656;11.302;2023-06-14T08:46:20;97972.81;;;22.30;60.82
33163;BME280;29282;45.656;11.302;2023-06-14T08:48:51;97986.59;;;22.30;60.82
33163;BME280;29282;45.656;11.302;2023-06-14T08:51:20;97987.41;;;22.30;60.89
33163;BME280;29282;45.656;11.302;2023-06-14T08:53:53;97986.59;;;22.30;61.15
33163;BME280;29282;45.656;11.302;2023-06-14T08:56:25;97984.63;;;22.30;60.90
33163;BME280;29282;45.656;11.302;2023-06-14T08:58:53;97989.38;;;22.30;61.01
33163;BME280;29282;45.656;11.302;2023-06-14T09:01:19;97987.41;;;22.30;60.75
33163;BME280;29282;45.656;11.302;2023-06-14T09:03:47;97997.28;;;22.31;60.83
33163;BME280;29282;45.656;11.302;2023-06-14T09:06:13;97990.97;;;22.31;60.93
33163;BME280;29282;45.656;11.302;2023-06-14T09:08:43;97984.63;;;22.30;60.66
33163;BME280;29282;45.656;11.302;2023-06-14T09:11:13;97985.44;;;22.31;60.73
33163;BME280;29282;45.656;11.302;2023-06-14T09:13:39;97991.75;;;22.31;61.25
33163;BME280;29282;45.656;11.302;2023-06-14T09:16:08;97997.28;;;22.31;61.25
33163;BME280;29282;45.656;11.302;2023-06-14T09:18:45;97994.50;;;22.31;60.94
33163;BME280;29282;45.656;11.302;2023-06-14T09:21:13;97991.75;;;22.31;61.21
33163;BME280;29282;45.656;11.302;2023-06-14T09:23:41;97994.50;;;22.31;60.76
33163;BME280;29282;45.656;11.302;2023-06-14T09:26:14;97992.53;;;22.32;60.75
33163;BME280;29282;45.656;11.302;2023-06-14T09:28:50;97989.78;;;22.32;61.14
33163;BME280;29282;45.656;11.302;2023-06-14T09:31:20;97996.91;;;22.33;61.11
33163;BME280;29282;45.656;11.302;2023-06-14T09:33:47;97994.16;;;22.33;61.31
33163;BME280;29282;45.656;11.302;2023-06-14T09:36:24;97997.72;;;22.33;61.04
33163;BME280;29282;45.656;11.302;2023-06-14T09:38:59;97998.88;;;22.32;61.07
33163;BME280;29282;45.656;11.302;2023-06-14T09:41:32;97998.06;;;22.32;60.91
33163;BME280;29282;45.656;11.302;2023-06-14T09:43:59;97996.13;;;22.32;61.28
33163;BME280;29282;45.656;11.302;2023-06-14T09:46:26;97992.19;;;22.33;60.67
33163;BME280;29282;45.656;11.302;2023-06-14T09:48:52;98005.19;;;22.33;60.75
33163;BME280;29282;45.656;11.302;2023-06-14T09:51:18;97998.88;;;22.32;60.78
33163;BME280;29282;45.656;11.302;2023-06-14T09:53:46;97994.16;;;22.33;60.75
33163;BME280;29282;45.656;11.302;2023-06-14T09:56:17;97994.94;;;22.33;61.16
33163;BME280;29282;45.656;11.302;2023-06-14T09:58:46;97992.19;;;22.33;61.07
33163;BME280;29282;45.656;11.302;2023-06-14T10:01:12;97986.66;;;22.33;61.15
33163;BME280;29282;45.656;11.302;2023-06-14T10:03:39;97996.53;;;22.34;60.91
33163;BME280;29282;45.656;11.302;2023-06-14T10:06:07;97995.75;;;22.34;61.00
33163;BME280;29282;45.656;11.302;2023-06-14T10:08:35;97986.66;;;22.33;61.06
33163;BME280;29282;45.656;11.302;2023-06-14T10:11:02;97978.38;;;22.33;60.71
33163;BME280;29282;45.656;11.302;2023-06-14T10:13:31;97980.78;;;22.35;60.74
33163;BME280;29282;45.656;11.302;2023-06-14T10:16:09;97990.22;;;22.34;60.86
33163;BME280;29282;45.656;11.302;2023-06-14T10:18:53;97986.28;;;22.35;60.96
33163;BME280;29282;45.656;11.302;2023-06-14T10:21:37;97982.72;;;22.34;61.07
33163;BME280;29282;45.656;11.302;2023-06-14T10:24:08;97979.63;;;22.36;60.72
33163;BME280;29282;45.656;11.302;2023-06-14T10:26:50;97966.19;;;22.34;61.08
33163;BME280;29282;45.656;11.302;2023-06-14T10:29:16;97962.63;;;22.34;60.59
33163;BME280;29282;45.656;11.302;2023-06-14T10:31:46;97961.44;;;22.35;60.84
33163;BME280;29282;45.656;11.302;2023-06-14T10:34:20;97963.41;;;22.34;60.64
33163;BME280;29282;45.656;11.302;2023-06-14T10:37:12;97963.41;;;22.34;61.00
33163;BME280;29282;45.656;11.302;2023-06-14T10:39:39;97957.91;;;22.34;60.62
33163;BME280;29282;45.656;11.302;2023-06-14T10:42:06;97956.75;;;22.35;60.88
33163;BME280;29282;45.656;11.302;2023-06-14T10:47:07;97956.75;;;22.35;60.63
33163;BME280;29282;45.656;11.302;2023-06-14T10:49:42;97954.00;;;22.35;60.96
33163;BME280;29282;45.656;11.302;2023-06-14T10:52:20;97952.38;;;22.34;60.52
33163;BME280;29282;45.656;11.302;2023-06-14T10:57:57;97947.66;;;22.35;60.72
33163;BME280;29282;45.656;11.302;2023-06-14T11:00:25;97942.94;;;22.35;60.96
33163;BME280;29282;45.656;11.302;2023-06-14T11:03:43;97952.81;;;22.36;60.71
33163;BME280;29282;45.656;11.302;2023-06-14T11:05:54;97952.81;;;22.36;60.50
33163;BME280;29282;45.656;11.302;2023-06-14T11:08:43;97950.06;;;22.36;60.49
33163;BME280;29282;45.656;11.302;2023-06-14T11:11:13;97944.53;;;22.36;60.48
33163;BME280;29282;45.656;11.302;2023-06-14T11:13:41;97940.97;;;22.36;60.57
33163;BME280;29282;45.656;11.302;2023-06-14T11:16:14;97943.75;;;22.36;60.86
33163;BME280;29282;45.656;11.302;2023-06-14T11:18:41;97936.25;;;22.36;60.61
33163;BME280;29282;45.656;11.302;2023-06-14T11:21:06;97930.72;;;22.36;60.75
33163;BME280;29282;45.656;11.302;2023-06-14T11:23:34;97930.72;;;22.36;60.61
33163;BME280;29282;45.656;11.302;2023-06-14T11:26:00;97928.78;;;22.37;60.46
33163;BME280;29282;45.656;11.302;2023-06-14T11:28:36;97922.44;;;22.36;60.74
33163;BME280;29282;45.656;11.302;2023-06-14T11:31:03;97926.00;;;22.37;60.95
33163;BME280;29282;45.656;11.302;2023-06-14T11:33:29;97923.25;;;22.37;60.93
33163;BME280;29282;45.656;11.302;2023-06-14T11:35:55;97920.50;;;22.37;60.60
33163;BME280;29282;45.656;11.302;2023-06-14T11:38:20;97918.53;;;22.37;60.55
33163;BME280;29282;45.656;11.302;2023-06-14T11:40:46;97913.38;;;22.36;60.77
33163;BME280;29282;45.656;11.302;2023-06-14T11:43:11;97918.53;;;22.37;60.60
33163;BME280;29282;45.656;11.302;2023-06-14T11:45:38;97907.47;;;22.37;60.46
33163;BME280;29282;45.656;11.302;2023-06-14T11:48:04;97913.78;;;22.38;60.55
33163;BME280;29282;45.656;11.302;2023-06-14T11:50:31;97908.66;;;22.36;60.93
33163;BME280;29282;45.656;11.302;2023-06-14T11:53:01;97909.84;;;22.35;60.84
33163;BME280;29282;45.656;11.302;2023-06-14T11:55:38;97909.84;;;22.35;60.87
33163;BME280;29282;45.656;11.302;2023-06-14T11:58:04;97909.00;;;22.35;60.83
33163;BME280;29282;45.656;11.302;2023-06-14T12:00:30;97909.84;;;22.35;60.54
33163;BME280;29282;45.656;11.302;2023-06-14T12:02:56;97900.38;;;22.36;60.52
33163;BME280;29282;45.656;11.302;2023-06-14T12:05:22;97897.63;;;22.36;60.70
33163;BME280;29282;45.656;11.302;2023-06-14T12:07:49;97899.19;;;22.37;60.76
33163;BME280;29282;45.656;11.302;2023-06-14T12:10:15;97897.63;;;22.36;60.53
33163;BME280;29282;45.656;11.302;2023-06-14T12:12:42;97905.91;;;22.36;60.46
33163;BME280;29282;45.656;11.302;2023-06-14T12:15:11;97888.53;;;22.36;60.57
33163;BME280;29282;45.656;11.302;2023-06-14T12:17:37;97893.69;;;22.37;60.74
33163;BME280;29282;45.656;11.302;2023-06-14T12:20:08;97896.81;;;22.36;60.56
33163;BME280;29282;45.656;11.302;2023-06-14T12:22:59;97878.28;;;22.36;60.43
33163;BME280;29282;45.656;11.302;2023-06-14T12:25:29;97882.63;;;22.37;60.50
33163;BME280;29282;45.656;11.302;2023-06-14T12:27:57;97882.63;;;22.37;60.54
33163;BME280;29282;45.656;11.302;2023-06-14T12:30:22;97883.44;;;22.38;60.49
33163;BME280;29282;45.656;11.302;2023-06-14T12:32:48;97880.66;;;22.38;60.64
33163;BME280;29282;45.656;11.302;2023-06-14T12:35:15;97868.84;;;22.37;60.86
33163;BME280;29282;45.656;11.302;2023-06-14T12:37:40;97870.41;;;22.38;60.90
33163;BME280;29282;45.656;11.302;2023-06-14T12:40:06;97871.25;;;22.39;60.45
33163;BME280;29282;45.656;11.302;2023-06-14T12:42:33;97870.06;;;22.40;60.56
33163;BME280;29282;45.656;11.302;2023-06-14T12:44:59;97878.34;;;22.40;60.49
33163;BME280;29282;45.656;11.302;2023-06-14T12:47:25;97879.13;;;22.40;60.42
33163;BME280;29282;45.656;11.302;2023-06-14T12:49:50;97873.63;;;22.40;60.93
33163;BME280;29282;45.656;11.302;2023-06-14T12:52:19;97874.41;;;22.41;60.70
33163;BME280;29282;45.656;11.302;2023-06-14T12:54:45;97872.44;;;22.41;60.94
33163;BME280;29282;45.656;11.302;2023-06-14T12:57:10;97863.75;;;22.39;60.86
33163;BME280;29282;45.656;11.302;2023-06-14T12:59:35;97866.50;;;22.39;60.65
33163;BME280;29282;45.656;11.302;2023-06-14T13:02:15;97865.72;;;22.39;60.97
33163;BME280;29282;45.656;11.302;2023-06-14T13:04:41;97867.66;;;22.38;60.70